Okara, Pakistan
Current Conditions -  °F | °C
As of 8:00 AM on Saturday 20 Dec 2014 (Local Time) from OPLA Reporting Station
Moderate Fog Moderate Fog  
Wind Chill: 38°   Ceiling: Unl
Heat Index: 41°   Visibility: 0.31mi
Dew Point: 37°   Wind: 5mph
Humidity: 87%   Direction: 330°NNW
Pressure: 30.18"   Gusts: NA
Location:  30.81°N, 73.45°E
Report Text: OPLA 200300Z 33004KT 0500 FG VV/// 05/03 Q1022 BECMG 0600A30.23
Loading
Personal Weather Stations






























Interactive Weather Map New forecast layout! Learn more

10-Day Weather Forecast

Advertisements
Track Severe Weather on mobile